Weather observations for the past three days for
Hutchinson, Hutchinson Municipal Airport-Butler Field
Metric (Imperial)
Date Time (cdt) Wind (kph) Vis. (km) Weather Sky Cond. Temperature (ºC) Relative Humidity Wind Chill (°C) Heat Index (°C) Pressure Precipitation (cm)
Air Dwpt 6 hour altimeter (cm) sea level (mb) 1 hr 3 hr 6 hr
Max. Min.
04 01:35 SW 6 16.09 Fair CLR 11.9 -0.9 41% 75.03 0.0
04 01:15 SW 9 16.09 Fair CLR 11.9 -0.7 42% 75.06 0.0
04 00:55 SW 7 16.09 Fair CLR 11.1 -0.2 20 8.7 46% 75.11 0.0
04 00:35 Calm 16.09 Fair CLR 10.2 -0.2 49% 75.13 0.0
04 00:15 SW 6 16.09 Fair CLR 9.7 -0.1 51% 75.18 0.0
03 23:55 Calm 16.09 Fair CLR 11.1 -0.7 44% 75.18 0.0
03 23:35 Calm 16.09 Fair CLR 10.5 -0.8 46% 75.21 0.0
03 23:15 Calm 16.09 Fair CLR 10 -0.3 49% 75.23 0.0
03 22:55 Calm 16.09 Fair CLR 9.5 0.2 53% 75.29 0.0
03 22:35 Calm 16.09 Fair CLR 9.9 0.4 52% 75.31 0.0
03 22:15 Calm 16.09 Fair CLR 9.9 0.5 52% 75.34 0.0
03 21:55 Calm 16.09 Fair CLR 12.4 -0.4 42% 75.34 0.0
03 21:35 Calm 16.09 Fair CLR 12.5 0 43% 75.36 0.0
03 21:15 Calm 16.09 Fair CLR 12.6 0 42% 75.36 0.0
03 20:55 Calm 16.09 Fair CLR 13.1 0.2 41% 75.36 0.0
03 20:35 Calm 16.09 Fair CLR 14.7 0 37% 75.36 0.0
03 20:15 W 6 16.09 Fair CLR 16.7 0 32% 75.39 0.0
03 19:55 W 9 16.09 Fair CLR 18.2 -0.3 29% 75.39 0.0
03 19:35 W 15 16.09 Fair CLR 18.6 -0.4 28% 75.41 0.0
03 19:15 W 15 16.09 Fair CLR 19.1 -0.9 26% 75.41 0.0
03 18:55 W 19 16.09 Fair CLR 20 -1.3 21.2 18.7 24% 75.41 0.0
03 18:35 W 24 G 31 16.09 Fair CLR 20.3 -1.2 24% 75.44 0.0
03 18:15 NW 15 16.09 Fair CLR 20.6 -2.7 21% 75.44 0.0
03 17:55 NW 30 16.09 Fair CLR 20.7 -1.8 22% 75.44 0.0
03 17:35 W 24 G 31 16.09 Fair CLR 20.7 -1 23% 75.46 0.0
03 17:15 NW 22 G 33 16.09 Fair CLR 20.9 -1.2 23% 75.46 0.0
03 16:55 NW 19 G 28 16.09 Fair CLR 20.7 -2.1 22% 75.49 0.0
03 16:35 NW 22 G 30 16.09 Fair CLR 20.6 -3.1 20% 75.49 0.0
03 16:15 NW 22 G 33 16.09 Fair CLR 20.8 -1.7 22% 75.51 0.0
03 15:55 W 20 G 28 16.09 Fair CLR 20.9 -1.7 22% 75.51 0.0
03 15:35 NW 20 G 28 16.09 Fair CLR 20.7 -2.6 21% 75.54 0.0
03 15:15 W 20 G 33 16.09 Fair CLR 20.5 -2.4 21% 75.57 0.0
03 14:55 NW 17 G 44 16.09 Fair CLR 20.3 -2 22% 75.57 0.0
03 14:35 NW 26 G 39 16.09 Fair CLR 19.8 -1.2 24% 75.59 0.0
03 14:15 NW 22 G 35 16.09 Fair CLR 19.9 -0.7 25% 75.62 0.0
03 13:55 NW 24 G 43 16.09 Fair CLR 19.4 0.5 28% 75.62 0.0
03 13:35 NW 30 G 37 16.09 Fair CLR 19.2 0.2 28% 75.64 0.0
03 13:15 NW 30 G 43 16.09 Fair CLR 18.9 -0.1 28% 75.64 0.0
03 12:55 N 33 G 44 16.09 Fair and Breezy CLR 19.1 0.6 19.1 9.5 29% 75.67 0.0
03 12:35 N 22 G 35 16.09 Fair CLR 18.8 0.2 29% 75.67 0.0
03 12:15 N 31 G 37 16.09 Fair CLR 18.3 0.8 31% 75.67 0.0
03 11:55 N 26 G 31 16.09 Fair CLR 18 0.3 30% 75.69 0.0
03 11:35 NW 22 G 44 16.09 Fair CLR 18 0.6 31% 75.67 0.0
03 11:15 N 17 G 28 16.09 Fair CLR 17.7 2.4 36% 75.67 0.0
03 10:55 NW 28 16.09 Fair CLR 17 1 34% 75.67 0.0
03 10:35 N 31 G 44 16.09 Fair CLR 16.6 2.1 38% 75.67 0.0
03 10:15 N 26 G 35 16.09 Fair CLR 16.3 3.5 43% 75.67 0.0
03 09:55 NW 24 G 35 16.09 Fair CLR 15.8 3.6 44% 75.67 0.0
03 09:35 N 22 G 31 16.09 Fair CLR 15 3.6 47% 75.64 0.0
03 09:15 N 20 G 37 16.09 Fair CLR 14.1 3.5 49% 75.64 0.0
03 08:55 N 22 G 31 16.09 Fair CLR 13.3 3.3 51% 75.62 0.0
03 08:35 N 26 G 35 16.09 Fair CLR 12.6 2.8 52% 75.62 0.0
03 08:15 N 26 G 33 16.09 Fair CLR 12 2.8 54% 75.59 0.0
03 07:55 N 26 G 33 16.09 Fair CLR 11.3 2.6 55% 75.57 0.0
03 07:35 NW 26 16.09 Fair CLR 10.6 2.4 57% 75.54 0.0
03 07:15 NW 26 G 31 16.09 Fair CLR 9.8 2.5 61% 7 75.51 0.0
03 06:55 NW 22 16.09 Fair CLR 9.2 2.4 13.6 6.7 63% 6 75.49 0.0
03 06:35 NW 19 16.09 Fair CLR 8.2 2.3 67% 6 75.46 0.0
03 06:15 NW 17 16.09 Fair CLR 7.7 2 68% 5 75.44 0.0
03 05:55 NW 19 G 26 16.09 Fair CLR 7.5 1.9 68% 5 75.44 0.0
03 05:35 W 17 16.09 Fair CLR 7.7 1.5 65% 5 75.41 0.0
03 05:15 W 13 16.09 Fair CLR 6.7 0.6 65% 4 75.41 0.0
03 04:55 SW 7 16.09 Fair CLR 8.5 0.3 57% 8 75.41 0.0
03 04:35 SW 6 16.09 Fair CLR 9.2 0 53% 75.41 0.0
03 04:15 S 6 16.09 Fair CLR 10 0 50% 75.44 0.0
03 03:55 Calm 16.09 Fair CLR 10.2 0 49% 75.44 0.0
03 03:35 S 7 16.09 Fair CLR 10.5 0 49% 75.44 0.0
03 03:15 SW 7 16.09 Fair CLR 10.6 0.1 49% 75.46 0.0
03 02:55 S 9 16.09 Fair CLR 11 0.6 49% 75.46 0.0
03 02:35 S 11 16.09 Fair CLR 11.7 0.7 47% 75.49 0.0
03 02:15 S 13 16.09 Partly Cloudy SCT100 SCT120 12.3 1.4 48% 75.49 0.0
03 01:55 S 11 16.09 Mostly Cloudy BKN110 12.5 1.7 48% 75.49 0.0
03 01:35 S 11 16.09 Overcast OVC110 13.1 2 47% 75.51 0.0
03 01:15 S 15 16.09 Mostly Cloudy BKN100 BKN120 13.3 2.1 47% 75.54 0.0
03 00:55 S 17 16.09 Mostly Cloudy SCT055 SCT090 BKN110 13.1 2.5 17.3 12.7 49% 75.57 0.0
03 00:35 S 17 16.09 Light Rain SCT060 SCT065 OVC085 13.5 3.3 50% 75.62 0.0
03 00:15 NE 11 16.09 Overcast OVC095 13 3.1 51% 75.67 0.0
02 23:55 SE 6 16.09 Rain SCT065 SCT070 OVC095 14.5 2.1 43% 75.64 0.0
02 23:35 S 6 16.09 Overcast OVC095 15.1 2.5 43% 75.64 0.0
02 23:15 SW 11 16.09 Light Rain SCT047 SCT060 OVC095 14.6 3.4 47% 75.64 0.0
02 22:55 SW 13 G 33 16.09 Rain SCT047 BKN060 OVC085 15.4 2.4 42% 75.67 0.0
02 22:35 SW 19 G 26 16.09 Mostly Cloudy SCT065 SCT075 BKN100 16.4 0 33% 75.72 0.0
02 22:15 SW 11 16.09 Fair CLR 15.5 0 35% 75.72 0.0
02 21:55 SW 13 16.09 Partly Cloudy SCT120 15.8 -0.5 33% 75.72 0.0
02 21:35 SW 11 16.09 Mostly Cloudy SCT100 BKN120 16.6 -0.6 31% 75.74 0.0
02 21:15 W 6 16.09 Mostly Cloudy SCT090 BKN120 14.5 0.3 38% 75.74 0.0
02 20:55 S 9 16.09 Mostly Cloudy SCT100 BKN120 15.9 -0.4 33% 75.77 0.0
02 20:35 SW 9 16.09 Mostly Cloudy BKN100 BKN120 16.1 0 34% 75.79 0.0
02 20:15 SW 6 16.09 Overcast OVC090 15.9 0 34% 75.79 0.0
02 19:55 W 7 16.09 Overcast OVC090 16.4 -0.4 32% 75.79 0.0
02 19:35 W 13 G 26 16.09 Overcast SCT070 SCT085 OVC110 16.8 -0.5 31% 75.84 0.0
02 19:15 W 19 G 31 16.09 Overcast SCT060 BKN070 OVC085 17 -0.8 30% 75.84 0.0
02 18:55 SW 15 G 39 16.09 Overcast SCT070 OVC080 17.4 -0.8 21 16.4 29% 75.87 0.0
02 18:35 SW 15 G 30 16.09 Overcast OVC080 18 -1.6 27% 75.87 0.0
02 18:15 W 19 G 26 16.09 Mostly Cloudy SCT065 BKN080 BKN100 18 -0.5 29% 75.87 0.0
02 17:55 W 20 G 30 16.09 Mostly Cloudy BKN095 18.8 -1.3 26% 75.87 0.0
02 17:35 W 19 16.09 Mostly Cloudy BKN095 BKN120 18.8 -0.4 28% 75.87 0.0
02 17:15 W 19 G 30 16.09 Mostly Cloudy BKN095 19.1 -1.7 25% 75.87 0.0
02 16:55 W 28 G 39 16.09 Overcast OVC095 20 -1 24% 75.9 0.0
02 16:35 W 22 G 30 16.09 Mostly Cloudy BKN095 BKN120 19.6 -0.4 26% 75.9 0.0
02 16:15 W 20 16.09 Partly Cloudy SCT085 19.5 -0.6 26% 75.92 0.0
02 15:55 W 28 G 35 16.09 Partly Cloudy SCT085 20.3 -0.1 26% 75.95 0.0
02 15:35 W 20 G 30 16.09 Fair CLR 19.6 -0.2 27% 75.97 0.0
02 15:15 W 24 G 33 16.09 Fair CLR 19.3 -0.3 27% 76 0.0
02 14:55 SW 15 G 30 16.09 Fair CLR 18.5 -1 27% 76.05 0.0
02 14:35 W 13 G 31 16.09 Fair CLR 18.4 -1.2 27% 76.07 0.0
02 14:15 SW 22 G 30 16.09 Fair CLR 18.3 -0.9 27% 76.1 0.0
02 13:55 W 22 G 33 16.09 Fair CLR 17.5 -1 29% 76.12 0.0
02 13:35 SW 20 G 30 16.09 Fair CLR 17.5 -0.7 29% 76.17 0.0
02 13:15 W 15 G 30 16.09 Fair CLR 16.7 -1.1 30% 76.2 0.0
02 12:55 W 15 16.09 Fair CLR 16.5 -0.9 16.5 0.4 31% 76.23 0.0
02 12:35 W 15 G 26 16.09 Fair CLR 15.3 -2 31% 76.25 0.0
02 12:15 SW 11 16.09 Fair CLR 15.1 -2.2 31% 76.28 0.0
02 11:55 W 17 16.09 Fair CLR 14.6 -2.1 32% 76.3 0.0
02 11:35 W 13 16.09 Fair CLR 14.2 -2.4 32% 76.33 0.0
02 11:15 W 19 G 30 16.09 Fair CLR 13.3 -2.5 34% 76.33 0.0
02 10:55 W 19 G 28 16.09 Fair CLR 13.2 -2.3 34% 76.38 0.0
02 10:35 SW 19 G 26 16.09 Fair CLR 12.6 -2.4 35% 76.38 0.0
02 10:15 W 17 16.09 Fair CLR 12.1 -2.7 36% 76.38 0.0
02 09:55 W 20 16.09 Fair CLR 11.5 -2 39% 76.4 0.0
02 09:35 W 20 16.09 Fair CLR 10.6 -1.8 42% 76.43 0.0
02 09:15 W 17 16.09 Fair CLR 9.6 -1.2 47% 7 76.43 0.0
02 08:55 W 11 16.09 Fair CLR 8 -1 53% 6 76.45 0.0
02 08:35 W 13 16.09 Fair CLR 7 -0.9 58% 5 76.45 0.0
02 08:15 W 11 16.09 Fair CLR 5.5 -1 63% 3 76.48 0.0
02 07:55 W 7 16.09 Fair CLR 4.1 -1.5 67% 3 76.48 0.0
02 07:35 W 6 16.09 Fair CLR 3 -1.9 71% 76.48 0.0
02 07:15 Calm 16.09 Fair CLR 1.8 -2 76% 76.48 0.0
02 06:55 W 6 16.09 Fair CLR 0.2 -2.2 2.8 -0.6 84% 76.48 0.0
02 06:35 Calm 16.09 Fair CLR 0.5 -3 78% 76.48 0.0
02 06:15 W 7 16.09 Fair CLR 0 -3.2 79% -2 76.48 0.0
02 05:55 W 7 16.09 Fair CLR 0.2 -3.1 79% -2 76.48 0.0
02 05:35 Calm 16.09 Fair CLR 0.7 -3.1 76% 76.48 0.0
02 05:15 W 7 16.09 Fair CLR 0.5 -3.1 77% -2 76.48 0.0
02 04:55 W 11 16.09 Fair CLR -0.4 -2.9 83% -4 76.48 0.0
02 04:35 Calm 16.09 Fair CLR -0.2 -3 82% 76.45 0.0
02 04:15 Calm 16.09 Fair CLR 0.3 -3.2 78% 76.45 0.0
02 03:55 Calm 16.09 Fair CLR 0.1 -3.2 79% 76.45 0.0
02 03:35 Calm 16.09 Fair CLR 1 -3.5 72% 76.45 0.0
02 03:15 Calm 16.09 Fair CLR 0.9 -3.5 73% 76.45 0.0
02 02:55 W 7 16.09 Fair CLR 0.5 -3.2 77% -2 76.48 0.0
02 02:35 W 7 16.09 Fair CLR 0.8 -3.2 75% -1 76.48 0.0
02 02:15 W 6 16.09 Fair CLR 2.2 -3.5 66% 76.48 0.0
02 01:55 W 6 16.09 Fair CLR 1.5 -3 72% 76.48 0.0
02 01:35 W 6 16.09 Fair CLR 1.9 -3.3 69% 76.48 0.0
02 01:15 Calm 16.09 Fair CLR 1.7 -3.1 71% 76.48 0.0
02 00:55 Calm 16.09 Fair CLR 1.5 -2.9 10.4 1.5 73% 76.5 0.0
02 00:35 Calm 16.09 Fair CLR 1.6 -2.5 74% 76.5 0.0
02 00:15 Calm 16.09 Fair CLR 2 -2.6 72% 76.5 0.0
01 23:55 Calm 16.09 Fair CLR 2.8 -2.5 68% 76.48 0.0
01 23:35 SW 6 16.09 Fair CLR 3.5 -2.5 65% 76.48 0.0
01 23:15 Calm 16.09 Fair CLR 3.1 -1.9 70% 76.48 0.0
01 22:55 SW 6 16.09 Fair CLR 2.9 -1.1 75% 76.48 0.0
01 22:35 Calm 16.09 Fair CLR 2.7 -1.9 72% 76.5 0.0
01 22:15 Calm 16.09 Fair CLR 3 -1.4 73% 76.5 0.0
01 21:55 Calm 16.09 Fair CLR 3.5 -1.5 70% 76.48 0.0
01 21:35 Calm 16.09 Fair CLR 4 -1.9 66% 76.48 0.0
01 21:15 Calm 16.09 Fair CLR 5.1 -1.7 62% 76.48 0.0
01 20:55 Calm 16.09 Fair CLR 5.9 -2.6 55% 76.48 0.0
01 20:35 Calm 16.09 Fair CLR 7.2 -3.1 48% 76.45 0.0
01 20:15 Calm 16.09 Fair CLR 8.6 -5.1 38% 76.45 0.0
01 19:55 Calm 16.09 Fair CLR 9.6 -5.3 35% 76.43 0.0
01 19:35 NW 7 16.09 Fair CLR 9.8 -5.3 34% 9 76.43 0.0
01 19:15 N 6 16.09 Fair CLR 10.2 -4.7 35% 76.43 0.0
01 18:55 NW 7 16.09 Fair CLR 10.4 -5 11.5 8.4 34% 76.43 0.0
01 18:35 N 9 16.09 Partly Cloudy SCT065 10.5 -4.7 34% 76.45 0.0
01 18:15 N 7 16.09 Partly Cloudy SCT065 9.3 -4.5 38% 9 76.45 0.0
01 17:55 N 9 16.09 Partly Cloudy SCT065 11.1 -4.5 33% 76.45 0.0
01 17:35 N 11 16.09 Partly Cloudy SCT065 11 -4.6 33% 76.45 0.0
01 17:15 N 7 16.09 Partly Cloudy SCT065 10.9 -5.9 31% 76.45 0.0
01 16:55 NW 17 16.09 Partly Cloudy SCT065 9.6 -4.8 36% 7 76.45 0.0
01 16:35 NW 17 16.09 Mostly Cloudy BKN065 11 -5 32% 76.45 0.0
01 16:15 W 13 G 26 16.09 Mostly Cloudy BKN065 11 -5.2 32% 76.45 0.0
01 15:55 NW 19 16.09 Partly Cloudy SCT065 10.9 -4.4 34% 76.48 0.0
01 15:35 NW 15 G 30 16.09 Mostly Cloudy BKN065 10 -5 35% 8 76.48 0.0
01 15:15 NW 11 16.09 Mostly Cloudy BKN065 10.2 -4.8 35% 76.48 0.0
01 14:55 W 6 16.09 Mostly Cloudy BKN065 9.5 -5 36% 76.5 0.0
01 14:35 N 19 16.09 Mostly Cloudy BKN065 10.2 -4 37% 76.5 0.0
01 14:15 N 9 16.09 Overcast OVC055 8.7 -5.3 37% 7 76.5 0.0
01 13:55 N 15 16.09 Overcast OVC055 8.9 -5 37% 7 76.5 0.0
01 13:35 N 9 16.09 Overcast OVC055 8.7 -4.6 39% 7 76.5 0.0
01 13:15 NW 17 16.09 Mostly Cloudy BKN055 8.5 -4.5 40% 6 76.5 0.0
01 12:55 N 7 16.09 Mostly Cloudy BKN055 9.1 -3.8 9.3 2.3 40% 8 76.5 0.0
01 12:35 Calm 16.09 Mostly Cloudy BKN055 9 -3.6 41% 76.53 0.0
01 12:15 N 6 16.09 Mostly Cloudy BKN055 8.6 -4.5 40% 76.53 0.0
01 11:55 N 11 16.09 Overcast OVC055 8 -4.2 42% 6 76.53 0.0
01 11:35 Calm 16.09 Overcast OVC055 7.6 -4.7 42% 76.5 0.0
01 11:15 NE 15 16.09 Overcast OVC065 7.7 -4.4 42% 5 76.5 0.0
01 10:55 NE 17 16.09 Overcast OVC065 7.7 -3.9 44% 5 76.5 0.0
01 10:35 NE 7 16.09 Overcast OVC065 7.6 -4.3 43% 7 76.5 0.0
01 10:15 E 11 16.09 Overcast OVC065 7 -3.3 48% 5 76.5 0.0
01 09:55 NE 9 16.09 Overcast OVC065 6.5 -3.7 48% 5 76.5 0.0
01 09:35 NE 9 16.09 Overcast OVC065 6.3 -3.3 51% 5 76.5 0.0
01 08:55 NE 13 16.09 Overcast OVC065 5.4 -2.4 58% 3 76.48 0.0
01 08:35 NE 11 16.09 Overcast OVC065 4.8 -2.8 58% 3 76.48 0.0
01 08:15 E 7 16.09 Overcast OVC065 4.2 -2.4 63% 3 76.48 0.0
01 07:55 NE 9 16.09 Overcast OVC065 4.1 -2.4 63% 2 76.45 0.0
01 07:35 NE 11 16.09 Overcast OVC065 3.8 -2.6 63% 1 76.43 0.0
01 07:15 NE 7 16.09 Overcast OVC065 3.6 -2.4 65% 2 76.43 0.0
01 06:55 NE 6 16.09 Mostly Cloudy BKN065 1.7 -2.5 4.7 0.8 74% 76.4 0.0
01 06:35 Calm 16.09 Partly Cloudy SCT065 0.8 -2.8 77% 76.4 0.0
01 06:15 NE 6 16.09 Fair CLR 1.3 -3 73% 76.38 0.0
01 05:35 NE 9 16.09 Fair CLR 1.6 -2.7 73% -1 76.35 0.0
01 05:15 NE 9 16.09 Fair CLR 1.7 -2.8 72% -1 76.35 0.0
01 04:55 NE 11 16.09 Fair CLR 2 -2.5 72% -1 76.35 0.0
01 04:35 NE 7 16.09 Fair CLR 2.2 -1.5 77% 0 76.33 0.0
01 04:15 NE 9 16.09 Partly Cloudy SCT075 3 -1 75% 1 76.33 0.0
01 03:55 NE 11 16.09 Mostly Cloudy BKN075 3.5 -0.3 76% 1 76.33 0.0
01 03:35 N 9 16.09 Mostly Cloudy BKN075 3.6 0 78% 1 76.33 0.0
01 03:15 N 6 16.09 Overcast OVC075 4 0.4 78% 76.33 0.0
01 02:55 N 11 16.09 Mostly Cloudy BKN075 3.6 1.4 86% 1 76.3 0.0
01 02:35 NW 9 16.09 Mostly Cloudy BKN075 3.8 1.7 86% 2 76.3 0.0
01 02:15 NW 11 16.09 Mostly Cloudy SCT050 BKN075 4.1 1.8 85% 2 76.3 0.0
Date Time (cdt) Wind (kph) Vis. (km) Weather Sky Cond. Air Dwpt Max. Min. Relative Humidity Wind Chill (°C) Heat Index (°C) altimeter (cm) sea level (mb) 1 hr 3 hr 6 hr
6 hour
Temperature (ºC) Pressure Precipitation (cm)